Time;durP1;ratioP1;P1;durP2;ratioP2;P2;SDS_P1;SDS_P2;PMS_P1;PMS_P2;Temp;Humidity;BMP_temperature;BMP_pressure;BME280_temperature;BME280_humidity;BME280_pressure;Samples;Min_cycle;Max_cycle;Signal;HPM_P1;HPM_P2
2023/05/25 00:01:04;;;;;;;7.60;5.40;;;14.50;74.00;;;17.52;50.34;102461.56;5054267;28;20228;-69
2023/05/25 00:03:31;;;;;;;8.97;5.47;;;14.60;74.00;;;17.51;50.39;102458.09;5053833;28;20662;-68
2023/05/25 00:06:01;;;;;;;12.90;5.43;;;14.60;73.90;;;17.50;50.48;102472.38;5053034;28;20217;-68
2023/05/25 00:08:28;;;;;;;9.00;6.00;;;14.60;73.90;;;17.53;50.58;102471.22;5053836;28;20206;-68
2023/05/25 00:10:55;;;;;;;7.27;5.60;;;14.60;73.90;;;17.56;50.45;102470.88;5053731;28;20190;-68
2023/05/25 00:13:22;;;;;;;11.97;5.80;;;14.60;73.90;;;17.61;50.61;102475.66;5053672;28;20220;-68
2023/05/25 00:15:50;;;;;;;12.27;6.40;;;14.60;73.90;;;17.64;50.47;102483.31;5054296;28;20217;-68
2023/05/25 00:18:17;;;;;;;10.50;5.30;;;14.70;74.00;;;17.65;50.38;102474.31;5053906;28;20269;-68
2023/05/25 00:20:46;;;;;;;9.87;5.37;;;14.70;73.90;;;17.68;50.59;102473.94;5052795;28;20204;-67
2023/05/25 00:23:13;;;;;;;13.13;6.23;;;14.70;74.00;;;17.71;50.60;102474.41;5053826;28;20247;-68
2023/05/25 00:25:40;;;;;;;7.73;4.97;;;14.80;74.10;;;17.76;50.51;102472.03;5053833;28;20263;-68
2023/05/25 00:28:07;;;;;;;10.23;5.53;;;14.80;73.90;;;17.81;50.28;102476.84;5054072;28;20209;-68
2023/05/25 00:30:34;;;;;;;10.53;4.93;;;14.90;73.80;;;17.87;50.28;102476.13;5054274;28;20237;-68
2023/05/25 00:33:03;;;;;;;7.97;5.30;;;15.00;73.70;;;17.93;50.21;102478.06;5053984;28;20573;-68
2023/05/25 00:35:30;;;;;;;10.57;5.20;;;15.10;73.50;;;17.96;50.29;102472.38;5053687;28;20218;-69
2023/05/25 00:37:57;;;;;;;7.57;4.30;;;15.10;73.20;;;18.00;50.10;102473.66;5053949;28;20186;-68
2023/05/25 00:40:24;;;;;;;11.33;5.60;;;15.10;73.00;;;18.01;50.00;102475.34;5053984;28;20658;-68
2023/05/25 00:42:52;;;;;;;11.40;5.03;;;15.10;72.70;;;18.01;49.83;102470.84;5053425;28;20212;-68
2023/05/25 00:45:19;;;;;;;10.03;5.07;;;15.10;72.80;;;18.02;49.91;102466.31;5054065;28;20217;-68
2023/05/25 00:47:51;;;;;;;7.97;4.93;;;15.20;72.90;;;18.01;49.79;102460.19;5054056;28;20209;-68
2023/05/25 00:50:35;;;;;;;7.77;4.57;;;15.20;73.00;;;18.04;49.85;102465.13;5053995;28;20257;-68
2023/05/25 00:53:02;;;;;;;9.60;5.17;;;15.20;73.10;;;18.07;49.81;102459.44;5053874;28;20261;-69
2023/05/25 00:55:37;;;;;;;8.97;5.03;;;15.20;72.90;;;18.05;49.78;102457.97;5054512;28;20292;-68
2023/05/25 00:58:07;;;;;;;11.50;5.30;;;15.20;72.80;;;18.04;49.88;102459.00;5055012;28;20268;-68
2023/05/25 01:00:36;;;;;;;10.13;4.87;;;15.20;72.90;;;18.04;49.78;102456.34;5055474;28;20192;-68
2023/05/25 01:03:11;;;;;;;7.33;4.90;;;15.20;72.80;;;18.01;49.98;102464.69;5057445;28;20208;-68
2023/05/25 01:05:43;;;;;;;6.93;4.30;;;15.20;72.80;;;17.99;50.11;102448.88;5055211;28;20324;-68
2023/05/25 01:08:15;;;;;;;9.53;4.73;;;15.20;72.90;;;17.99;50.09;102451.53;5053457;28;20271;-69
2023/05/25 01:10:47;;;;;;;7.87;4.60;;;15.10;72.90;;;18.01;50.21;102454.84;5053621;28;20205;-68
2023/05/25 01:13:18;;;;;;;10.10;4.80;;;15.10;73.20;;;18.06;50.06;102449.81;5054037;28;20224;-70
2023/05/25 01:15:46;;;;;;;7.33;4.57;;;15.20;73.40;;;18.10;50.07;102452.94;5037525;28;20305;-69
2023/05/25 01:18:14;;;;;;;9.63;5.33;;;15.20;73.30;;;18.13;50.03;102457.91;5034420;28;20221;-69
2023/05/25 01:20:57;;;;;;;9.80;5.07;;;15.30;73.30;;;18.17;50.05;102452.03;5055109;28;20541;-68
2023/05/25 01:23:33;;;;;;;8.43;5.10;;;15.30;73.10;;;18.24;49.80;102460.13;5060673;28;20200;-69
2023/05/25 01:26:05;;;;;;;9.10;4.27;;;15.40;73.00;;;18.28;49.71;102456.91;5061049;28;20233;-67
2023/05/25 01:28:39;;;;;;;9.60;4.87;;;15.40;72.80;;;18.34;49.64;102452.69;5058191;28;20259;-69
2023/05/25 01:31:08;;;;;;;10.90;4.73;;;15.50;72.80;;;18.41;49.54;102463.44;5044848;28;20221;-67
2023/05/25 01:33:35;;;;;;;9.90;5.07;;;15.50;72.70;;;18.43;49.48;102464.91;5037163;28;20222;-68
2023/05/25 01:36:05;;;;;;;14.10;5.10;;;15.50;72.60;;;18.44;49.34;102468.41;5037427;28;20651;-68
2023/05/25 01:38:32;;;;;;;8.47;5.00;;;15.50;72.50;;;18.43;49.42;102464.06;5036971;28;20191;-68
2023/05/25 01:40:59;;;;;;;11.33;5.33;;;15.50;72.60;;;18.43;49.62;102464.06;5036803;28;20277;-68
2023/05/25 01:43:26;;;;;;;12.57;5.23;;;15.50;72.50;;;18.39;49.34;102460.13;5036860;28;20191;-68
2023/05/25 01:46:05;;;;;;;9.60;5.40;;;15.50;72.60;;;18.34;49.29;102466.00;5037030;28;20289;-68
2023/05/25 01:48:44;;;;;;;12.97;5.47;;;15.40;72.60;;;18.26;49.42;102464.25;5038890;28;20737;-68
2023/05/25 01:51:24;;;;;;;9.90;5.40;;;15.40;72.80;;;18.20;49.69;102467.66;5056072;28;20182;-68
2023/05/25 01:53:59;;;;;;;8.60;5.30;;;15.30;73.00;;;18.16;49.79;102473.53;5056398;28;20194;-68
2023/05/25 01:56:29;;;;;;;12.37;5.70;;;15.20;73.30;;;18.13;50.05;102473.91;5056940;28;20219;-68
2023/05/25 01:59:01;;;;;;;8.40;5.73;;;15.20;73.70;;;18.08;50.08;102477.09;5056882;28;20232;-68
2023/05/25 02:01:30;;;;;;;10.37;6.00;;;15.10;73.90;;;18.05;50.16;102473.97;5056823;28;20623;-68
2023/05/25 02:03:58;;;;;;;10.97;5.60;;;15.10;74.20;;;18.01;50.36;102486.00;5056351;28;20260;-67
2023/05/25 02:06:26;;;;;;;15.07;5.87;;;15.00;74.40;;;17.95;50.58;102474.22;5055665;28;20256;-68
2023/05/25 02:08:53;;;;;;;11.77;5.43;;;15.00;74.60;;;17.90;50.62;102475.78;5056580;28;20245;-68
2023/05/25 02:11:20;;;;;;;13.27;6.43;;;14.90;74.90;;;17.88;50.98;102481.28;5056456;28;20198;-68
2023/05/25 02:13:47;;;;;;;12.33;6.03;;;14.90;75.20;;;17.87;51.06;102484.13;5056181;28;20198;-69
2023/05/25 02:16:14;;;;;;;11.93;5.83;;;14.90;75.40;;;17.86;51.07;102483.28;5056418;28;20213;-67
2023/05/25 02:18:43;;;;;;;11.77;5.90;;;14.90;75.40;;;17.82;51.07;102468.69;5056134;28;20193;-68
2023/05/25 02:21:11;;;;;;;9.97;5.03;;;14.90;75.30;;;17.79;51.17;102470.84;5056118;28;20267;-67
2023/05/25 02:23:39;;;;;;;8.90;5.93;;;14.80;75.30;;;17.78;51.15;102474.53;5056188;28;20194;-68
2023/05/25 02:26:06;;;;;;;8.87;5.83;;;14.80;75.50;;;17.75;51.37;102469.56;5053930;28;20209;-67
2023/05/25 02:28:33;;;;;;;11.47;6.60;;;14.80;75.60;;;17.69;51.10;102467.59;5036424;28;20243;-68
2023/05/25 02:31:00;;;;;;;10.27;6.67;;;14.70;75.40;;;17.66;51.21;102470.66;5036205;28;20194;-68
2023/05/25 02:33:27;;;;;;;11.10;6.80;;;14.70;75.50;;;17.58;51.46;102469.69;5036768;28;20673;-68
2023/05/25 02:35:54;;;;;;;15.97;7.37;;;14.70;75.60;;;17.52;51.55;102474.88;5056216;28;20213;-68
2023/05/25 02:38:21;;;;;;;13.47;6.83;;;14.60;75.70;;;17.47;51.57;102467.41;5056113;28;20190;-68
2023/05/25 02:40:50;;;;;;;11.43;7.00;;;14.60;76.10;;;17.43;51.75;102476.75;5056512;28;20189;-68
2023/05/25 02:43:17;;;;;;;10.63;5.87;;;14.50;76.30;;;17.42;52.18;102475.09;5055591;28;20198;-67
2023/05/25 02:45:43;;;;;;;12.97;7.47;;;14.50;76.50;;;17.44;52.19;102473.09;5055943;28;20218;-68
2023/05/25 02:48:11;;;;;;;13.57;7.63;;;14.50;76.70;;;17.44;51.82;102475.75;5056198;28;20213;-67
2023/05/25 02:50:38;;;;;;;15.90;8.20;;;14.40;76.60;;;17.41;52.38;102478.75;5055942;28;20284;-67
2023/05/25 02:53:05;;;;;;;13.33;8.23;;;14.40;76.80;;;17.36;52.00;102470.47;5055600;28;20194;-68
2023/05/25 02:55:32;;;;;;;11.80;8.53;;;14.40;76.90;;;17.32;52.34;102474.50;5055549;28;20218;-68
2023/05/25 02:58:00;;;;;;;16.77;8.20;;;14.40;77.20;;;17.29;52.54;102479.34;5055431;28;20188;-68
2023/05/25 03:00:27;;;;;;;14.20;8.27;;;14.40;77.40;;;17.25;52.51;102468.22;5055473;28;20227;-67
2023/05/25 03:02:54;;;;;;;15.93;9.73;;;14.30;77.50;;;17.24;52.41;102477.19;5054489;28;20186;-68
2023/05/25 03:05:21;;;;;;;15.50;9.33;;;14.30;77.50;;;17.21;52.68;102477.53;5054664;28;20225;-68
2023/05/25 03:07:48;;;;;;;15.50;8.50;;;14.20;77.60;;;17.18;52.41;102472.59;5054581;28;20194;-68
2023/05/25 03:10:15;;;;;;;15.67;8.63;;;14.20;77.80;;;17.17;52.89;102484.22;5054591;28;20186;-68
2023/05/25 03:12:42;;;;;;;13.93;9.43;;;14.20;78.00;;;17.18;53.03;102485.06;5054914;28;20252;-68
2023/05/25 03:15:12;;;;;;;16.17;9.40;;;14.20;78.10;;;17.17;53.17;102494.03;5042929;28;20277;-67
2023/05/25 03:17:39;;;;;;;16.03;9.97;;;14.20;78.30;;;17.16;53.05;102485.25;5035193;28;20211;-68
2023/05/25 03:20:09;;;;;;;15.77;10.23;;;14.20;78.50;;;17.17;53.43;102489.56;5050501;28;20212;-68
2023/05/25 03:22:36;;;;;;;14.10;8.63;;;14.20;78.70;;;17.16;53.16;102495.06;5050618;28;20206;-67
2023/05/25 03:25:04;;;;;;;13.23;8.37;;;14.20;78.80;;;17.19;53.43;102494.69;5034099;28;20304;-68
2023/05/25 03:27:31;;;;;;;12.77;9.10;;;14.20;78.90;;;17.20;53.45;102502.53;5034607;28;20198;-69
2023/05/25 03:29:58;;;;;;;15.53;9.90;;;14.20;78.90;;;17.19;53.20;102506.16;5034732;28;20302;-68
2023/05/25 03:32:26;;;;;;;13.23;9.00;;;14.20;78.90;;;17.14;53.39;102511.19;5034385;28;20191;-68
2023/05/25 03:34:53;;;;;;;11.23;8.27;;;14.20;78.80;;;17.08;53.59;102509.22;5046505;28;20252;-67
2023/05/25 03:37:20;;;;;;;14.47;9.30;;;14.10;78.70;;;17.04;53.63;102513.25;5054567;28;20185;-68
2023/05/25 03:39:47;;;;;;;16.60;9.30;;;14.10;79.00;;;17.00;53.92;102501.28;5054342;28;20181;-68
2023/05/25 03:42:14;;;;;;;13.80;10.10;;;14.10;79.40;;;16.99;53.92;102504.13;5054170;28;20212;-68
2023/05/25 03:44:41;;;;;;;16.63;10.37;;;14.00;79.40;;;16.96;53.73;102515.94;5053407;28;20749;-68
2023/05/25 03:47:08;;;;;;;16.43;9.60;;;14.00;79.60;;;16.92;53.85;102507.44;5053983;28;20193;-68
2023/05/25 03:49:36;;;;;;;18.20;10.70;;;14.00;79.80;;;16.88;54.16;102513.28;5053931;28;20212;-68
2023/05/25 03:52:05;;;;;;;17.27;10.00;;;13.90;80.00;;;16.85;54.15;102513.66;5054180;28;20663;-69
2023/05/25 03:54:32;;;;;;;19.40;12.00;;;13.90;80.20;;;16.82;54.53;102509.50;5053663;28;20224;-66
2023/05/25 03:56:59;;;;;;;18.77;11.27;;;13.90;80.60;;;16.82;54.63;102516.66;5054058;28;20217;-69
2023/05/25 03:59:26;;;;;;;18.00;12.33;;;13.80;80.70;;;16.81;54.67;102517.63;5054410;28;20213;-67
2023/05/25 04:01:53;;;;;;;21.73;10.90;;;13.80;81.00;;;16.82;54.71;102514.81;5054247;28;20198;-67
2023/05/25 04:04:20;;;;;;;16.67;11.13;;;13.80;81.10;;;16.87;54.99;102524.94;5053373;28;20212;-68
2023/05/25 04:06:50;;;;;;;17.13;10.90;;;13.80;81.20;;;16.91;54.73;102515.63;5053889;28;20542;-67
2023/05/25 04:09:17;;;;;;;14.17;9.87;;;13.80;81.10;;;16.95;54.75;102516.13;5053511;28;20244;-67
2023/05/25 04:11:45;;;;;;;15.63;10.10;;;13.90;81.20;;;16.97;55.20;102522.94;5053918;28;20230;-67
2023/05/25 04:14:12;;;;;;;15.53;11.00;;;13.90;81.50;;;17.03;54.94;102522.22;5053061;28;20210;-68
2023/05/25 04:16:40;;;;;;;13.53;10.77;;;13.90;81.10;;;17.05;54.77;102525.53;5053488;28;20198;-68
2023/05/25 04:19:07;;;;;;;21.50;11.30;;;14.00;81.00;;;17.04;54.62;102525.72;5052671;28;20305;-68
2023/05/25 04:21:35;;;;;;;16.97;10.60;;;14.00;80.80;;;17.02;54.56;102525.88;5053627;28;20706;-69
2023/05/25 04:24:03;;;;;;;20.37;12.70;;;14.00;80.80;;;17.03;54.49;102527.53;5053005;28;20538;-68
2023/05/25 04:26:31;;;;;;;18.00;10.60;;;14.00;81.00;;;17.04;54.62;102533.69;5053582;28;20194;-68
2023/05/25 04:28:58;;;;;;;14.10;10.40;;;14.00;81.00;;;17.04;54.65;102529.22;5053348;28;20572;-67
2023/05/25 04:31:25;;;;;;;14.43;9.87;;;14.00;81.00;;;17.05;54.49;102525.53;5053697;28;20200;-67
2023/05/25 04:33:54;;;;;;;21.17;11.50;;;14.00;81.00;;;17.04;54.51;102518.56;5053146;28;20689;-69
2023/05/25 04:36:22;;;;;;;14.57;10.57;;;14.00;81.00;;;17.04;54.61;102523.06;5053288;28;20205;-67
2023/05/25 04:38:50;;;;;;;17.00;10.50;;;14.00;81.10;;;17.05;54.60;102525.53;5053278;28;20269;-67
2023/05/25 04:41:19;;;;;;;15.53;9.93;;;14.00;81.10;;;17.07;54.81;102531.50;5052949;28;20681;-67
2023/05/25 04:43:46;;;;;;;17.27;11.00;;;14.00;81.20;;;17.09;54.85;102534.81;5052781;28;20272;-67
2023/05/25 04:46:36;;;;;;;17.47;11.37;;;14.00;81.20;;;17.10;54.79;102536.50;5053562;28;20178;-69
2023/05/25 04:49:04;;;;;;;19.13;11.40;;;14.00;81.20;;;17.11;54.66;102532.84;5052767;28;20217;-68
2023/05/25 04:51:31;;;;;;;19.23;10.30;;;14.00;81.00;;;17.14;54.57;102529.81;5053176;28;20686;-67
2023/05/25 04:53:58;;;;;;;19.37;11.67;;;14.10;81.20;;;17.18;54.94;102536.47;5052561;28;20550;-68
2023/05/25 04:56:27;;;;;;;16.50;10.77;;;14.10;81.30;;;17.26;55.12;102535.56;5054313;28;20247;-67
2023/05/25 04:58:54;;;;;;;17.17;11.03;;;14.20;81.60;;;17.31;54.88;102536.72;5057006;28;20240;-67
2023/05/25 05:01:20;;;;;;;14.93;10.97;;;14.20;81.20;;;17.36;54.60;102539.69;5057115;28;20535;-67
2023/05/25 05:03:47;;;;;;;15.70;9.50;;;14.30;81.30;;;17.42;54.37;102536.31;5056664;28;20193;-68
2023/05/25 05:06:15;;;;;;;12.47;8.00;;;14.30;81.00;;;17.46;54.40;102532.31;5056983;28;20259;-67
2023/05/25 05:08:42;;;;;;;15.80;8.03;;;14.40;80.90;;;17.50;54.21;102544.28;5056698;28;20512;-69
2023/05/25 05:11:09;;;;;;;13.70;7.57;;;14.40;80.70;;;17.56;54.18;102548.09;5053408;28;20542;-67
2023/05/25 05:13:37;;;;;;;16.10;7.10;;;14.40;80.50;;;17.63;54.10;102553.56;5036601;28;20632;-68
2023/05/25 05:16:05;;;;;;;10.57;6.30;;;14.50;80.30;;;17.67;53.75;102553.03;5042948;28;20218;-69
2023/05/25 05:18:32;;;;;;;12.33;7.07;;;14.50;79.80;;;17.69;53.57;102561.66;5037278;28;20214;-68
2023/05/25 05:20:59;;;;;;;8.23;6.57;;;14.50;79.30;;;17.75;53.19;102565.47;5056694;28;20190;-69
2023/05/25 05:23:26;;;;;;;8.77;5.60;;;14.60;79.30;;;17.80;53.32;102566.59;5056823;28;20205;-69
2023/05/25 05:25:53;;;;;;;12.10;6.07;;;14.70;79.20;;;17.87;52.81;102564.06;5056587;28;20754;-68
2023/05/25 05:28:20;;;;;;;8.70;6.13;;;14.70;78.40;;;17.91;52.66;102566.19;5056480;28;20253;-67
2023/05/25 05:30:48;;;;;;;12.23;6.03;;;14.80;78.50;;;17.99;52.73;102562.63;5056403;28;20190;-68
2023/05/25 05:33:15;;;;;;;10.23;6.17;;;14.80;78.50;;;18.06;52.61;102563.56;5055990;28;20651;-67
2023/05/25 05:35:43;;;;;;;8.40;5.90;;;14.90;78.10;;;18.13;52.19;102564.53;5055870;28;20244;-66
2023/05/25 05:38:10;;;;;;;9.60;6.07;;;15.00;78.10;;;18.17;52.07;102568.47;5056059;28;20593;-68
2023/05/25 05:40:37;;;;;;;11.73;7.97;;;15.00;77.60;;;18.25;52.02;102576.41;5056113;28;20190;-67
2023/05/25 05:43:05;;;;;;;9.10;6.50;;;15.10;77.90;;;18.34;52.02;102575.34;5055593;28;20338;-69
2023/05/25 05:45:32;;;;;;;9.80;4.83;;;15.10;77.70;;;18.44;51.99;102572.41;5056005;28;20209;-68
2023/05/25 05:48:00;;;;;;;11.80;6.47;;;15.20;77.40;;;18.55;51.84;102564.84;5054675;28;20202;-69
2023/05/25 05:50:27;;;;;;;9.43;5.10;;;15.30;77.70;;;18.65;51.40;102573.41;5056108;28;20304;-67
2023/05/25 05:52:54;;;;;;;11.07;5.70;;;15.40;77.00;;;18.70;51.21;102573.69;5056399;28;20672;-67
2023/05/25 05:55:22;;;;;;;8.60;5.23;;;15.50;76.50;;;18.72;51.11;102573.50;5055686;28;20245;-68
2023/05/25 05:57:49;;;;;;;8.73;4.97;;;15.60;76.30;;;18.73;50.92;102581.31;5056172;28;20200;-68
2023/05/25 06:00:17;;;;;;;10.17;4.90;;;15.60;76.70;;;18.77;50.76;102582.63;5055526;28;20194;-71
2023/05/25 06:02:44;;;;;;;7.97;5.30;;;15.60;75.90;;;18.80;50.79;102573.41;5055978;28;20634;-69
2023/05/25 06:05:12;;;;;;;8.77;4.30;;;15.70;75.60;;;18.83;50.39;102583.72;5055643;28;20287;-67
2023/05/25 06:07:40;;;;;;;7.90;4.63;;;15.70;75.40;;;18.85;50.20;102577.19;5055190;28;20190;-69
2023/05/25 06:10:08;;;;;;;5.13;4.20;;;15.70;74.90;;;18.87;50.14;102585.03;5056177;28;20213;-68
2023/05/25 06:12:35;;;;;;;11.87;6.50;;;15.70;74.70;;;18.89;49.97;102589.16;5055900;28;20190;-69
2023/05/25 06:15:05;;;;;;;8.77;5.33;;;15.70;74.60;;;18.96;49.89;102585.75;5055061;28;20266;-68
2023/05/25 06:17:32;;;;;;;10.47;5.27;;;15.80;74.70;;;19.01;49.33;102592.19;5055266;28;20201;-69
2023/05/25 06:19:59;;;;;;;9.60;4.27;;;15.80;73.90;;;19.05;49.43;102592.63;5055234;28;20186;-71
2023/05/25 06:22:27;;;;;;;9.57;4.93;;;15.90;74.10;;;19.09;49.36;102596.63;5055052;28;20186;-69
2023/05/25 06:24:54;;;;;;;6.90;4.17;;;15.90;74.00;;;19.12;49.12;102588.22;5054962;28;20305;-69
2023/05/25 06:27:22;;;;;;;9.70;4.37;;;15.90;73.90;;;19.18;48.87;102600.84;5054978;28;20198;-69
2023/05/25 06:29:49;;;;;;;6.37;4.37;;;16.00;73.70;;;19.23;49.21;102595.78;5055251;28;20214;-69
2023/05/25 06:32:16;;;;;;;13.43;8.63;;;16.00;73.40;;;19.28;48.80;102609.41;5054848;28;20200;-69
2023/05/25 06:34:43;;;;;;;10.83;4.90;;;16.00;73.30;;;19.30;48.69;102607.38;5054566;28;20218;-69
2023/05/25 06:37:10;;;;;;;8.63;4.17;;;16.10;72.90;;;19.29;48.20;102611.88;5054799;28;20200;-67
2023/05/25 06:39:39;;;;;;;7.47;3.87;;;16.10;72.60;;;19.28;48.51;102610.22;5054844;28;20553;-67
2023/05/25 06:42:06;;;;;;;7.47;3.60;;;16.10;72.20;;;19.27;48.55;102613.06;5054611;28;20554;-69
2023/05/25 06:44:33;;;;;;;9.10;3.97;;;16.10;72.20;;;19.30;48.28;102615.38;5054722;28;20214;-69
2023/05/25 06:47:01;;;;;;;10.90;4.03;;;16.10;72.10;;;19.30;48.17;102618.88;5055063;28;20221;-69
2023/05/25 06:49:29;;;;;;;5.80;4.23;;;16.10;72.00;;;19.34;48.16;102616.66;5046666;28;20225;-68
2023/05/25 06:51:56;;;;;;;9.53;4.20;;;16.10;71.70;;;19.35;47.83;102621.00;5034543;28;20197;-68
2023/05/25 06:54:23;;;;;;;6.70;3.60;;;16.20;71.60;;;19.36;48.00;102628.00;5044285;28;20600;-68
2023/05/25 06:56:51;;;;;;;11.03;4.07;;;16.20;71.20;;;19.37;47.78;102625.16;5054473;28;20225;-68
2023/05/25 06:59:18;;;;;;;7.27;3.53;;;16.20;71.20;;;19.39;47.65;102627.66;5054689;28;20595;-68
2023/05/25 07:01:46;;;;;;;9.63;4.43;;;16.20;71.20;;;19.43;47.32;102632.44;5054427;28;20229;-69
2023/05/25 07:04:13;;;;;;;9.60;4.33;;;16.30;71.10;;;19.49;47.56;102633.53;5046556;28;20265;-67
2023/05/25 07:06:40;;;;;;;7.33;3.80;;;16.30;70.60;;;19.53;47.32;102640.16;5034900;28;20644;-69
2023/05/25 07:09:07;;;;;;;6.30;2.93;;;16.40;70.10;;;19.54;46.98;102637.28;5035016;28;20643;-69
2023/05/25 07:11:34;;;;;;;7.47;4.23;;;16.40;69.80;;;19.57;46.49;102636.09;5035058;28;20685;-67
2023/05/25 07:14:02;;;;;;;7.93;4.23;;;16.40;69.40;;;19.62;46.63;102644.38;5036911;28;20221;-68
2023/05/25 07:16:30;;;;;;;10.73;4.37;;;16.50;69.20;;;19.64;46.06;102645.00;5057700;28;20228;-67
2023/05/25 07:18:57;;;;;;;9.53;4.80;;;16.50;69.00;;;19.68;46.18;102643.66;5058279;28;20242;-68
2023/05/25 07:21:26;;;;;;;10.47;4.83;;;16.50;69.10;;;19.77;46.30;102642.53;5057958;28;20209;-68
2023/05/25 07:23:53;;;;;;;6.80;4.23;;;16.50;69.00;;;19.87;46.00;102648.38;5058515;28;20214;-66
2023/05/25 07:26:22;;;;;;;8.87;4.07;;;16.60;68.40;;;20.01;45.50;102647.53;5056841;28;20205;-68
2023/05/25 07:28:49;;;;;;;6.67;3.53;;;16.70;69.00;;;20.23;45.40;102649.19;5057966;28;20273;-68
2023/05/25 07:31:17;;;;;;;8.63;3.67;;;16.80;68.70;;;20.57;44.78;102650.31;5056682;28;20299;-69
2023/05/25 07:33:44;;;;;;;8.70;5.30;;;17.00;68.50;;;20.81;44.04;102649.91;5043702;28;20210;-70
2023/05/25 07:36:11;;;;;;;7.87;3.73;;;17.20;67.80;;;20.93;43.85;102646.50;5037901;28;20665;-68
2023/05/25 07:38:38;;;;;;;9.80;3.80;;;17.40;67.20;;;20.97;42.87;102646.94;5040546;28;20241;-68
2023/05/25 07:41:05;;;;;;;14.10;4.47;;;17.50;64.70;;;20.92;42.28;102655.53;5051197;28;20213;-68
2023/05/25 07:43:33;;;;;;;10.43;3.63;;;17.50;63.90;;;20.86;42.59;102650.16;5041848;28;20183;-68
2023/05/25 07:46:03;;;;;;;9.47;3.80;;;17.60;63.50;;;20.85;42.22;102656.50;5046802;28;20213;-69
2023/05/25 07:48:33;;;;;;;7.60;4.00;;;17.60;63.40;;;20.85;42.38;102660.03;5047870;28;20182;-68
2023/05/25 07:51:00;;;;;;;8.07;3.70;;;17.60;63.30;;;20.87;42.19;102659.84;5049989;28;20213;-68
2023/05/25 07:53:27;;;;;;;11.23;3.80;;;17.60;63.40;;;20.95;42.28;102665.03;5052561;28;20738;-68
2023/05/25 07:55:54;;;;;;;14.27;6.37;;;17.70;63.30;;;21.01;41.96;102664.28;5053510;28;20241;-68
2023/05/25 07:58:21;;;;;;;11.80;5.87;;;17.70;62.20;;;21.04;40.98;102653.16;5043438;28;20190;-68
2023/05/25 08:00:49;;;;;;;14.40;6.10;;;17.60;60.60;;;21.02;41.11;102660.56;5046389;28;20300;-68
2023/05/25 08:03:16;;;;;;;14.07;7.33;;;17.70;61.30;;;21.02;41.35;102660.56;5040602;28;20194;-68
2023/05/25 08:05:51;;;;;;;7.70;4.63;;;17.70;60.90;;;21.05;41.18;102662.88;5045611;28;20213;-71
2023/05/25 08:09:13;;;;;;;10.93;6.87;;;17.70;60.80;;;21.04;40.50;102663.84;5038909;28;20198;-70
2023/05/25 08:11:44;;;;;;;9.80;6.20;;;17.70;59.80;;;21.19;40.58;102661.94;5027742;28;20210;-71
2023/05/25 08:14:13;;;;;;;13.40;6.67;;;17.80;61.00;;;21.45;40.18;102656.72;5033383;28;20253;-72
2023/05/25 08:16:41;;;;;;;7.47;4.37;;;17.90;60.50;;;22.14;39.86;102661.94;5028153;28;20202;-71
2023/05/25 08:19:31;;;;;;;12.77;4.50;;;18.10;61.50;;;22.97;38.36;102668.59;5049388;28;20666;-71
2023/05/25 08:22:03;;;;;;;7.20;4.23;;;18.50;58.90;;;23.40;37.33;102672.47;5030843;28;20297;-71
2023/05/25 08:24:32;;;;;;;11.73;4.50;;;18.80;59.20;;;23.62;36.36;102668.47;5038673;28;20561;-69
2023/05/25 08:27:00;;;;;;;9.60;4.50;;;19.20;57.90;;;23.55;36.45;102678.41;5040258;28;20214;-68
2023/05/25 08:29:32;;;;;;;7.37;4.20;;;19.40;57.00;;;23.32;36.65;102683.44;5026870;28;20202;-68
2023/05/25 08:32:08;;;;;;;9.60;4.23;;;19.50;57.00;;;23.09;36.86;102685.72;5046525;28;20669;-69
2023/05/25 08:34:35;;;;;;;8.23;4.03;;;19.60;56.60;;;22.82;37.11;102682.28;5041187;28;20220;-67
2023/05/25 08:37:03;;;;;;;11.40;4.67;;;19.50;56.20;;;22.60;37.50;102673.56;5046219;28;20276;-69
2023/05/25 08:39:33;;;;;;;9.87;4.37;;;19.30;56.10;;;22.44;37.31;102682.00;5047210;28;20213;-68
2023/05/25 08:42:02;;;;;;;13.63;4.63;;;19.20;55.90;;;22.30;37.32;102683.00;5051305;28;20673;-68
2023/05/25 08:44:34;;;;;;;13.40;4.20;;;19.10;55.10;;;22.19;37.37;102686.31;5046931;28;20213;-69
2023/05/25 08:47:07;;;;;;;9.73;4.33;;;19.00;55.50;;;22.15;37.49;102680.53;5044264;28;20202;-70
2023/05/25 08:49:43;;;;;;;12.20;4.10;;;18.90;55.90;;;22.50;37.79;102678.50;5048865;28;20206;-68
2023/05/25 08:52:13;;;;;;;10.33;4.43;;;18.90;57.10;;;24.15;36.41;102679.81;5030870;28;20779;-70
2023/05/25 08:54:43;;;;;;;10.97;4.90;;;19.20;58.00;;;25.45;33.91;102672.47;5037194;28;20237;-69
2023/05/25 08:57:17;;;;;;;10.53;3.97;;;19.80;57.10;;;25.80;32.63;102675.31;5043434;28;20195;-68
2023/05/25 08:59:51;;;;;;;7.03;3.60;;;20.30;55.00;;;25.64;32.06;102675.13;5049713;28;20723;-68
2023/05/25 09:02:28;;;;;;;8.50;4.47;;;20.70;52.40;;;25.25;32.23;102670.97;5041685;28;20244;-69
2023/05/25 09:04:58;;;;;;;9.10;4.37;;;20.80;51.60;;;24.79;33.23;102671.47;5046413;28;20690;-68
2023/05/25 09:07:27;;;;;;;10.73;5.23;;;20.90;51.20;;;24.34;33.34;102683.41;5049460;28;20252;-67
2023/05/25 09:09:56;;;;;;;10.37;5.47;;;20.80;50.90;;;24.01;33.63;102681.69;5051477;28;20553;-68
2023/05/25 09:12:23;;;;;;;9.53;4.60;;;20.60;51.00;;;23.80;34.40;102687.41;5048206;28;20201;-68
2023/05/25 09:14:58;;;;;;;9.93;5.03;;;20.50;52.00;;;23.64;34.83;102679.00;5034479;28;20289;-68
2023/05/25 09:17:26;;;;;;;13.00;5.20;;;20.40;52.00;;;23.45;35.01;102689.63;5033087;28;20213;-67
2023/05/25 09:19:53;;;;;;;14.83;6.63;;;20.20;52.20;;;23.47;34.85;102684.84;5040515;28;20228;-67
2023/05/25 09:22:21;;;;;;;12.17;6.00;;;20.10;52.10;;;23.67;34.76;102676.72;5049782;28;20197;-68
2023/05/25 09:24:50;;;;;;;10.80;5.97;;;20.00;52.50;;;23.76;34.93;102686.19;5050185;28;20312;-67
2023/05/25 09:27:21;;;;;;;13.50;4.60;;;20.10;53.20;;;23.75;34.40;102691.78;5045793;28;20274;-69
2023/05/25 09:29:50;;;;;;;7.57;4.83;;;20.10;52.20;;;23.60;34.71;102691.22;5044729;28;20190;-67
2023/05/25 09:32:18;;;;;;;12.10;5.53;;;20.10;52.30;;;23.45;35.03;102694.16;5041754;28;20214;-68
2023/05/25 09:34:48;;;;;;;12.27;5.80;;;20.10;52.70;;;23.38;35.15;102701.41;5029237;28;20280;-68
2023/05/25 09:37:17;;;;;;;13.70;6.57;;;20.00;52.80;;;23.37;35.25;102699.75;5035374;28;20289;-67
2023/05/25 09:39:48;;;;;;;11.07;5.47;;;20.00;52.90;;;23.98;34.83;102700.97;5050544;28;20216;-70
2023/05/25 09:42:17;;;;;;;16.17;6.03;;;20.00;53.10;;;24.73;33.25;102704.63;5050962;28;20600;-67
2023/05/25 09:44:44;;;;;;;15.30;6.40;;;20.20;52.50;;;24.86;32.26;102702.69;5047648;28;20304;-68
2023/05/25 09:47:12;;;;;;;12.20;6.03;;;20.40;51.40;;;24.91;32.97;102712.81;5044940;28;20222;-68
2023/05/25 09:49:41;;;;;;;12.13;5.30;;;20.50;51.30;;;25.13;31.89;102716.75;5043672;28;20248;-67
2023/05/25 09:52:08;;;;;;;12.60;6.23;;;20.60;50.80;;;26.27;31.13;102697.94;5070434;28;20258;-67
2023/05/25 09:54:37;;;;;;;10.33;5.03;;;20.90;51.20;;;26.93;29.69;102696.91;5034687;28;20673;-68
2023/05/25 09:57:05;;;;;;;12.90;6.03;;;21.30;50.00;;;26.93;29.78;102707.72;5038631;28;20340;-68
2023/05/25 09:59:33;;;;;;;16.33;5.93;;;21.70;49.60;;;26.61;29.91;102707.19;5051249;28;20276;-69
2023/05/25 10:02:00;;;;;;;10.57;5.57;;;21.80;47.60;;;26.18;29.99;102707.44;5052874;28;20242;-68
2023/05/25 10:04:28;;;;;;;16.23;5.77;;;21.90;47.80;;;25.75;30.90;102707.56;5044812;28;20226;-68
2023/05/25 10:06:59;;;;;;;12.17;5.40;;;21.70;47.40;;;25.35;31.42;102709.88;5039507;28;20205;-68
2023/05/25 10:09:28;;;;;;;16.27;6.00;;;21.60;47.50;;;25.62;31.40;102715.00;5051110;28;20248;-68
2023/05/25 10:11:58;;;;;;;15.17;5.67;;;21.50;48.40;;;26.25;30.62;102713.56;5049046;28;20252;-68
2023/05/25 10:14:28;;;;;;;13.77;6.67;;;21.60;48.30;;;27.02;29.01;102717.97;5044334;28;20268;-67